createdAt,value
2017-11-11T00:01:19.742Z,100295
2017-11-11T00:03:46.656Z,100297
2017-11-11T00:06:12.833Z,100291
2017-11-11T00:08:39.065Z,100297
2017-11-11T00:11:05.244Z,100291
2017-11-11T00:13:31.421Z,100286
2017-11-11T00:15:57.615Z,100284
2017-11-11T00:18:24.546Z,100282
2017-11-11T00:20:50.724Z,100283
2017-11-11T00:23:16.927Z,100279
2017-11-11T00:25:43.850Z,100288
2017-11-11T00:28:10.025Z,100282
2017-11-11T00:30:36.234Z,100294
2017-11-11T00:33:02.412Z,100292
2017-11-11T00:35:28.582Z,100290
2017-11-11T00:37:54.791Z,100291
2017-11-11T00:40:21.718Z,100291
2017-11-11T00:42:47.895Z,100288
2017-11-11T00:45:14.182Z,100282
2017-11-11T00:47:40.357Z,100283
2017-11-11T00:50:06.537Z,100285
2017-11-11T00:52:32.712Z,100289
2017-11-11T00:54:58.886Z,100290
2017-11-11T00:57:25.136Z,100297
2017-11-11T00:59:52.074Z,100300
2017-11-11T01:02:19.024Z,100317
2017-11-11T01:04:46.207Z,100297
2017-11-11T01:07:12.387Z,100296
2017-11-11T01:09:39.407Z,100299
2017-11-11T01:12:05.585Z,100299
2017-11-11T01:14:32.516Z,100304
2017-11-11T01:16:59.443Z,100291
2017-11-11T01:19:25.631Z,100287
2017-11-11T01:21:51.812Z,100275
2017-11-11T01:24:18.738Z,100282
2017-11-11T01:26:45.217Z,100272
2017-11-11T01:29:11.401Z,100271
2017-11-11T01:31:37.597Z,100278
2017-11-11T01:34:03.817Z,100283
2017-11-11T01:36:30.036Z,100284
2017-11-11T01:38:56.226Z,100281
2017-11-11T01:41:23.156Z,100279
2017-11-11T01:43:49.365Z,100266
2017-11-11T01:46:15.811Z,100256
2017-11-11T01:48:42.025Z,100260
2017-11-11T01:51:08.555Z,100266
2017-11-11T01:53:34.740Z,100268
2017-11-11T01:56:01.682Z,100259
2017-11-11T01:58:27.912Z,100260
2017-11-11T02:00:54.842Z,100263
2017-11-11T02:03:21.780Z,100251
2017-11-11T02:05:48.014Z,100249
2017-11-11T02:08:14.978Z,100246
2017-11-11T02:10:41.194Z,100251
2017-11-11T02:13:08.138Z,100246
2017-11-11T02:15:35.078Z,100245
2017-11-11T02:18:02.050Z,100246
2017-11-11T02:20:28.267Z,100237
2017-11-11T02:22:54.461Z,100243
2017-11-11T02:25:20.685Z,100233
2017-11-11T02:27:46.878Z,100228
2017-11-11T02:30:13.082Z,100227
2017-11-11T02:32:39.301Z,100233
2017-11-11T02:35:06.225Z,100232
2017-11-11T02:37:33.184Z,100235
2017-11-11T02:40:00.160Z,100234
2017-11-11T02:42:26.362Z,100226
2017-11-11T02:44:53.305Z,100227
2017-11-11T02:47:20.603Z,100226
2017-11-11T02:49:47.541Z,100233
2017-11-11T02:52:13.761Z,100225
2017-11-11T02:54:40.276Z,100210
2017-11-11T02:57:06.447Z,100208
2017-11-11T02:59:32.641Z,100213
2017-11-11T03:01:58.861Z,100205
2017-11-11T03:04:25.037Z,100212
2017-11-11T03:06:51.230Z,100209
2017-11-11T03:09:17.429Z,100218
2017-11-11T03:11:44.340Z,100203
2017-11-11T03:14:10.530Z,100203
2017-11-11T03:16:36.745Z,100204
2017-11-11T03:19:02.942Z,100196
2017-11-11T03:21:29.882Z,100197
2017-11-11T03:23:56.921Z,100203
2017-11-11T03:26:23.100Z,100204
2017-11-11T03:28:49.277Z,100203
2017-11-11T03:31:15.498Z,100212
2017-11-11T03:33:41.656Z,100209
2017-11-11T03:36:07.848Z,100212
2017-11-11T03:38:34.050Z,100207
2017-11-11T03:41:00.234Z,100209
2017-11-11T03:43:27.161Z,100210
2017-11-11T03:45:54.098Z,100215
2017-11-11T03:48:20.285Z,100202
2017-11-11T03:50:46.469Z,100198
2017-11-11T03:53:13.374Z,100194
2017-11-11T03:55:39.577Z,100197
2017-11-11T03:58:05.810Z,100196
2017-11-11T04:00:31.978Z,100202
2017-11-11T04:02:58.138Z,100193
2017-11-11T04:05:24.332Z,100198
2017-11-11T04:07:50.513Z,100197
2017-11-11T04:10:16.713Z,100187
2017-11-11T04:12:43.109Z,100187
2017-11-11T04:15:09.308Z,100179
2017-11-11T04:17:35.491Z,100172
2017-11-11T04:20:02.470Z,100167
2017-11-11T04:22:28.643Z,100170
2017-11-11T04:24:54.846Z,100175
2017-11-11T04:27:21.044Z,100184
2017-11-11T04:29:47.221Z,100183
2017-11-11T04:32:13.402Z,100187
2017-11-11T04:34:39.923Z,100188
2017-11-11T04:37:06.088Z,100176
2017-11-11T04:39:32.270Z,100178
2017-11-11T04:41:58.473Z,100165
2017-11-11T04:44:25.385Z,100154
2017-11-11T04:46:51.590Z,100149
2017-11-11T04:49:17.789Z,100156
2017-11-11T04:51:44.244Z,100167
2017-11-11T04:54:10.450Z,100184
2017-11-11T04:56:36.628Z,100182
2017-11-11T04:59:02.800Z,100176
2017-11-11T05:01:30.686Z,100178
2017-11-11T05:03:56.862Z,100175
2017-11-11T05:06:23.052Z,100172
2017-11-11T05:08:50.190Z,100165
2017-11-11T05:11:16.357Z,100178
2017-11-11T05:13:42.510Z,100170
2017-11-11T05:16:09.470Z,100170
2017-11-11T05:18:36.413Z,100167
2017-11-11T05:21:03.312Z,100166
2017-11-11T05:23:29.520Z,100169
2017-11-11T05:25:55.693Z,100168
2017-11-11T05:28:22.638Z,100173
2017-11-11T05:30:49.593Z,100165
2017-11-11T05:33:16.529Z,100168
2017-11-11T05:35:43.445Z,100162
2017-11-11T05:38:10.381Z,100156
2017-11-11T05:40:36.574Z,100156
2017-11-11T05:43:02.760Z,100159
2017-11-11T05:45:28.933Z,100162
2017-11-11T05:47:55.129Z,100161
2017-11-11T05:50:22.062Z,100166
2017-11-11T05:52:48.550Z,100172
2017-11-11T05:55:14.725Z,100173
2017-11-11T05:57:40.894Z,100171
2017-11-11T06:00:07.324Z,100164
2017-11-11T06:02:33.500Z,100158
2017-11-11T06:04:59.711Z,100163
2017-11-11T06:07:25.929Z,100169
2017-11-11T06:09:52.096Z,100165
2017-11-11T06:12:19.020Z,100148
2017-11-11T06:14:45.318Z,100138
2017-11-11T06:17:11.491Z,100145
2017-11-11T06:19:37.675Z,100144
2017-11-11T06:22:03.995Z,100147
2017-11-11T06:24:30.176Z,100150
2017-11-11T06:26:57.096Z,100141
2017-11-11T06:29:23.276Z,100147
2017-11-11T06:31:49.498Z,100144
2017-11-11T06:34:15.657Z,100145
2017-11-11T06:36:42.017Z,100144
2017-11-11T06:39:08.198Z,100153
2017-11-11T06:41:34.374Z,100145
2017-11-11T06:44:00.654Z,100147
2017-11-11T06:46:26.847Z,100140
2017-11-11T06:48:53.765Z,100145
2017-11-11T06:51:19.960Z,100150
2017-11-11T06:53:46.129Z,100154
2017-11-11T06:56:12.317Z,100155
2017-11-11T06:58:38.505Z,100155
2017-11-11T07:01:05.427Z,100159
2017-11-11T07:03:31.638Z,100160
2017-11-11T07:05:57.821Z,100164
2017-11-11T07:08:24.023Z,100155
2017-11-11T07:10:50.275Z,100152
2017-11-11T07:13:16.456Z,100141
2017-11-11T07:15:42.667Z,100141
2017-11-11T07:18:08.880Z,100140
2017-11-11T07:20:35.064Z,100143
2017-11-11T07:23:01.978Z,100144
2017-11-11T07:25:28.166Z,100140
2017-11-11T07:27:54.329Z,100135
2017-11-11T07:30:20.520Z,100124
2017-11-11T07:32:47.046Z,100122
2017-11-11T07:35:13.218Z,100128
2017-11-11T07:37:39.497Z,100132
2017-11-11T07:40:05.666Z,100131
2017-11-11T07:42:31.854Z,100133
2017-11-11T07:44:58.293Z,100131
2017-11-11T07:47:24.468Z,100130
2017-11-11T07:49:50.642Z,100122
2017-11-11T07:52:17.897Z,100125
2017-11-11T07:54:44.105Z,100128
2017-11-11T07:57:11.009Z,100131
2017-11-11T07:59:37.195Z,100119
2017-11-11T08:02:03.365Z,100117
2017-11-11T08:04:29.569Z,100107
2017-11-11T08:06:55.744Z,100101
2017-11-11T08:09:22.653Z,100103
2017-11-11T08:11:48.855Z,100093
2017-11-11T08:14:15.038Z,100096
2017-11-11T08:16:41.223Z,100098
2017-11-11T08:19:07.414Z,100091
2017-11-11T08:21:34.326Z,100098
2017-11-11T08:24:00.519Z,100095
2017-11-11T08:26:26.690Z,100103
2017-11-11T08:28:53.636Z,100104
2017-11-11T08:31:20.005Z,100090
2017-11-11T08:33:46.188Z,100093
2017-11-11T08:36:12.373Z,100092
2017-11-11T08:38:38.588Z,100103
2017-11-11T08:41:04.753Z,100098
2017-11-11T08:43:30.941Z,100104
2017-11-11T08:45:57.422Z,100108
2017-11-11T08:48:23.613Z,100103
2017-11-11T08:50:49.813Z,100100
2017-11-11T08:53:16.033Z,100101
2017-11-11T08:55:42.945Z,100108
2017-11-11T08:58:09.112Z,100103
2017-11-11T09:00:35.561Z,100100
2017-11-11T09:03:01.748Z,100107
2017-11-11T09:05:28.669Z,100091
2017-11-11T09:07:55.786Z,100094
2017-11-11T09:10:21.955Z,100084
2017-11-11T09:12:48.166Z,100079
2017-11-11T09:15:15.118Z,100082
2017-11-11T09:17:41.322Z,100083
2017-11-11T09:20:07.505Z,100080
2017-11-11T09:22:34.465Z,100072
2017-11-11T09:25:00.636Z,100076
2017-11-11T09:27:26.807Z,100076
2017-11-11T09:29:53.773Z,100068
2017-11-11T09:32:19.933Z,100063
2017-11-11T09:34:46.140Z,100068
2017-11-11T09:37:12.341Z,100064
2017-11-11T09:39:38.517Z,100064
2017-11-11T09:42:04.716Z,100060
2017-11-11T09:44:30.910Z,100059
2017-11-11T09:46:57.865Z,100058
2017-11-11T09:49:24.040Z,100061
2017-11-11T09:51:50.364Z,100053
2017-11-11T09:54:16.884Z,100055
2017-11-11T09:56:43.090Z,100053
2017-11-11T09:59:09.294Z,100049
2017-11-11T10:01:36.209Z,100046
2017-11-11T10:04:02.389Z,100037
2017-11-11T10:06:28.577Z,100042
2017-11-11T10:08:54.767Z,100041
2017-11-11T10:11:21.287Z,100034
2017-11-11T10:13:47.473Z,100026
2017-11-11T10:16:14.478Z,100031
2017-11-11T10:18:40.669Z,100019
2017-11-11T10:21:06.863Z,100019
2017-11-11T10:23:33.078Z,100011
2017-11-11T10:25:59.305Z,100017
2017-11-11T10:28:25.523Z,100015
2017-11-11T10:30:51.733Z,100010
2017-11-11T10:33:17.958Z,100013
2017-11-11T10:35:44.151Z,100012
2017-11-11T10:38:11.208Z,100009
2017-11-11T10:40:38.155Z,100011
2017-11-11T10:43:04.332Z,100002
2017-11-11T10:45:30.553Z,100005
2017-11-11T10:47:56.736Z,99994
2017-11-11T10:50:23.675Z,99990
2017-11-11T10:52:50.951Z,99990
2017-11-11T10:55:17.179Z,99989
2017-11-11T10:57:43.390Z,99985
2017-11-11T11:00:09.825Z,99979
2017-11-11T11:02:36.418Z,99980
2017-11-11T11:05:03.100Z,99979
2017-11-11T11:07:29.820Z,99980
2017-11-11T11:09:56.098Z,99987
2017-11-11T11:12:22.684Z,99981
2017-11-11T11:14:50.029Z,99981
2017-11-11T11:17:16.955Z,99978
2017-11-11T11:19:43.537Z,99974
2017-11-11T11:22:10.432Z,99973
2017-11-11T11:24:36.691Z,99970
2017-11-11T11:27:04.476Z,99967
2017-11-11T11:29:31.282Z,99971
2017-11-11T11:31:58.861Z,99960
2017-11-11T11:34:25.847Z,99955
2017-11-11T11:36:53.086Z,99952
2017-11-11T11:39:19.894Z,99957
2017-11-11T11:41:47.490Z,99944
2017-11-11T11:44:13.976Z,99950
2017-11-11T11:46:41.176Z,99947
2017-11-11T11:49:07.673Z,99951
2017-11-11T11:51:34.620Z,99943
2017-11-11T11:54:01.591Z,99940
2017-11-11T11:56:28.405Z,99942
2017-11-11T11:58:55.416Z,99945
2017-11-11T12:01:22.128Z,99938
2017-11-11T12:03:48.317Z,99941
2017-11-11T12:06:16.000Z,99946
2017-11-11T12:08:42.903Z,99934
2017-11-11T12:11:09.096Z,99936
2017-11-11T12:13:35.322Z,99938
2017-11-11T12:16:01.523Z,99932
2017-11-11T12:18:28.045Z,99934
2017-11-11T12:20:55.475Z,99930
2017-11-11T12:23:21.684Z,99925
2017-11-11T12:25:48.869Z,99917
2017-11-11T12:28:15.197Z,99923
2017-11-11T12:30:42.129Z,99922
2017-11-11T12:33:08.339Z,99919
2017-11-11T12:35:36.884Z,99921
2017-11-11T12:38:03.415Z,99921
2017-11-11T12:40:30.437Z,99919
2017-11-11T12:42:57.383Z,99919
2017-11-11T12:45:24.324Z,99924
2017-11-11T12:47:51.256Z,99929
2017-11-11T12:50:17.472Z,99941
2017-11-11T12:52:44.437Z,99938
2017-11-11T12:55:11.437Z,99945
2017-11-11T12:57:38.417Z,99955
2017-11-11T13:00:04.656Z,99960
2017-11-11T13:02:31.841Z,99935
2017-11-11T13:04:58.991Z,99947
2017-11-11T13:07:26.405Z,99947
2017-11-11T13:09:53.605Z,99949
2017-11-11T13:12:20.062Z,99947
2017-11-11T13:14:46.276Z,99947
2017-11-11T13:17:12.677Z,99945
2017-11-11T13:19:38.875Z,99937
2017-11-11T13:22:05.061Z,99933
2017-11-11T13:53:49.016Z,99730.74
2017-11-11T13:56:14.837Z,99742.25
2017-11-11T14:04:31.557Z,99736.15
2017-11-11T14:06:57.574Z,99727.20
2017-11-11T14:09:24.092Z,99722.39
2017-11-11T14:11:50.147Z,99714.93
2017-11-11T14:14:15.946Z,99707.12
2017-11-11T14:16:41.807Z,99701.63
2017-11-11T14:19:07.672Z,99712.21
2017-11-11T14:21:34.101Z,99716.42
2017-11-11T14:24:00.594Z,99714.58
2017-11-11T14:26:26.667Z,99719.16
2017-11-11T14:28:52.535Z,99725.09
2017-11-11T14:31:18.363Z,99726.77
2017-11-11T14:33:44.438Z,99716.51
2017-11-11T14:36:10.233Z,99697.20
2017-11-11T14:38:36.022Z,99711.87
2017-11-11T14:41:01.829Z,99715.94
2017-11-11T14:43:27.641Z,99707.73
2017-11-11T14:45:53.451Z,99712.75
2017-11-11T14:48:19.255Z,99705.55
2017-11-11T14:50:45.071Z,99707.12
2017-11-11T14:53:10.900Z,99704.22
2017-11-11T14:55:36.719Z,99705.16
2017-11-11T14:58:02.578Z,99706.83
2017-11-11T15:00:28.414Z,99708.27
2017-11-11T15:02:54.229Z,99703.59
2017-11-11T15:05:20.023Z,99704.06
2017-11-11T15:07:45.825Z,99701.03
2017-11-11T15:10:11.656Z,99696.39
2017-11-11T15:12:37.480Z,99692.30
2017-11-11T15:15:03.261Z,99692.34
2017-11-11T15:17:29.378Z,99688.61
2017-11-11T15:19:55.184Z,99689.69
2017-11-11T15:22:20.975Z,99697.86
2017-11-11T15:24:46.790Z,99707.20
2017-11-11T15:27:12.624Z,99716.16
2017-11-11T15:29:38.421Z,99712.69
2017-11-11T15:32:04.344Z,99715.61
2017-11-11T15:34:30.145Z,99718.96
2017-11-11T15:36:55.957Z,99716.69
2017-11-11T15:39:21.785Z,99719.65
2017-11-11T15:41:47.577Z,99714.84
2017-11-11T15:44:13.357Z,99714.23
2017-11-11T15:46:39.330Z,99709.67
2017-11-11T15:49:05.238Z,99713.68
2017-11-11T15:51:31.040Z,99707.75
2017-11-11T15:53:57.534Z,99708.84
2017-11-11T15:56:23.575Z,99701.59
2017-11-11T15:58:49.373Z,99703.53
2017-11-11T16:01:22.309Z,99705.84
2017-11-11T16:03:48.760Z,99714.93
2017-11-11T16:06:15.204Z,99711.25
2017-11-11T16:08:41.135Z,99708.67
2017-11-11T16:11:06.958Z,99712.52
2017-11-11T16:13:32.793Z,99707.77
2017-11-11T16:15:59.205Z,99710.38
2017-11-11T16:18:25.636Z,99719.59
2017-11-11T16:20:52.301Z,99717.89
2017-11-11T16:23:18.136Z,99712.80
2017-11-11T16:25:43.973Z,99703.58
2017-11-11T16:28:09.876Z,99712.22
2017-11-11T16:30:36.755Z,99702.23
2017-11-11T16:33:03.013Z,99703.25
2017-11-11T16:35:29.479Z,99706.54
2017-11-11T16:37:55.976Z,99712.90
2017-11-11T16:40:22.005Z,99707.94
2017-11-11T16:42:47.976Z,99724.78
2017-11-11T16:45:14.330Z,99711.55
2017-11-11T16:47:40.167Z,99717.06
2017-11-11T16:50:06.529Z,99712.55
2017-11-11T16:52:33.026Z,99713.45
2017-11-11T16:54:59.140Z,99712.37
2017-11-11T16:57:25.021Z,99717.77
2017-11-11T16:59:50.833Z,99723.05
2017-11-11T17:02:17.196Z,99722.86
2017-11-11T17:04:43.833Z,99727.73
2017-11-11T17:07:09.700Z,99720.81
2017-11-11T17:09:35.520Z,99724.92
2017-11-11T17:12:02.055Z,99724.59
2017-11-11T17:14:27.858Z,99728.41
2017-11-11T17:16:53.805Z,99725.56
2017-11-11T17:19:19.617Z,99727.06
2017-11-11T17:21:45.412Z,99733.62
2017-11-11T17:24:11.754Z,99740.35
2017-11-11T17:26:38.284Z,99736.94
2017-11-11T17:29:04.092Z,99735.70
2017-11-11T17:31:30.010Z,99743.05
2017-11-11T17:33:56.009Z,99734.91
2017-11-11T17:36:21.810Z,99740.95
2017-11-11T17:38:48.060Z,99739.02
2017-11-11T17:41:14.615Z,99742.67
2017-11-11T17:43:40.665Z,99747.80
2017-11-11T17:46:06.516Z,99766.07
2017-11-11T17:48:32.375Z,99774.06
2017-11-11T17:50:58.484Z,99758.61
2017-11-11T17:53:24.811Z,99772.03
2017-11-11T17:55:51.577Z,99772.77
2017-11-11T17:58:18.089Z,99764.83
2017-11-11T18:00:44.597Z,99781.14
2017-11-11T18:03:10.992Z,99780.66
2017-11-11T18:05:36.956Z,99782.75
2017-11-11T18:08:02.820Z,99783.52
2017-11-11T18:10:28.658Z,99783.52
2017-11-11T18:12:54.870Z,99784.83
2017-11-11T18:15:21.403Z,99792.22
2017-11-11T18:17:47.953Z,99794.69
2017-11-11T18:20:13.748Z,99782.88
2017-11-11T18:22:46.914Z,99778.50
2017-11-11T18:25:12.732Z,99782.83
2017-11-11T18:27:38.512Z,99778.16
2017-11-11T18:30:04.349Z,99780.81
2017-11-11T18:32:30.145Z,99775.15
2017-11-11T18:34:55.944Z,99789.50
2017-11-11T18:37:21.992Z,99786.92
2017-11-11T18:39:47.795Z,99788.78
2017-11-11T18:42:13.594Z,99784.75
2017-11-11T18:44:40.301Z,99795.50
2017-11-11T18:47:06.389Z,99797.17
2017-11-11T18:49:32.189Z,99800.58
2017-11-11T18:51:58.437Z,99792.39
2017-11-11T18:54:24.712Z,99793.02
2017-11-11T18:56:50.787Z,99799.24
2017-11-11T18:59:16.670Z,99801.10
2017-11-11T19:01:42.491Z,99807.17
2017-11-11T19:04:08.306Z,99803.14
2017-11-11T19:06:34.578Z,99806.64
2017-11-11T19:09:01.178Z,99806.28
2017-11-11T19:11:27.527Z,99811.69
2017-11-11T19:13:54.076Z,99815.13
2017-11-11T19:16:20.627Z,99811.00
2017-11-11T19:18:46.472Z,99811.69
2017-11-11T19:21:12.329Z,99817.23
2017-11-11T19:23:38.125Z,99817.38
2017-11-11T19:26:04.865Z,99813.77
2017-11-11T19:28:30.669Z,99817.48
2017-11-11T19:30:57.126Z,99819.03
2017-11-11T19:33:23.309Z,99818.60
2017-11-11T19:35:49.900Z,99820.08
2017-11-11T19:38:15.777Z,99822.70
2017-11-11T19:40:41.577Z,99824.17
2017-11-11T19:43:07.586Z,99823.53
2017-11-11T19:45:33.480Z,99822.62
2017-11-11T19:47:59.270Z,99820.72
2017-11-11T19:50:25.049Z,99826.36
2017-11-11T19:52:51.385Z,99824.30
2017-11-11T19:55:17.226Z,99824.11
2017-11-11T19:57:43.013Z,99830.23
2017-11-11T20:00:08.843Z,99830.56
2017-11-11T20:02:34.645Z,99836.16
2017-11-11T20:05:00.753Z,99835.20
2017-11-11T20:07:26.572Z,99835.91
2017-11-11T20:09:52.368Z,99839.58
2017-11-11T20:12:18.167Z,99838.26
2017-11-11T20:14:44.284Z,99840.06
2017-11-11T20:17:10.103Z,99843.07
2017-11-11T20:19:35.918Z,99841.72
2017-11-11T20:22:01.728Z,99847.03
2017-11-11T20:24:27.541Z,99852.62
2017-11-11T20:26:53.350Z,99851.80
2017-11-11T20:29:19.174Z,99854.39
2017-11-11T20:31:44.968Z,99853.81
2017-11-11T20:34:10.847Z,99863.31
2017-11-11T20:36:36.954Z,99864.16
2017-11-11T20:39:02.798Z,99869.94
2017-11-11T20:41:28.610Z,99866.94
2017-11-11T20:43:54.802Z,99866.56
2017-11-11T20:46:20.602Z,99873.09
2017-11-11T20:48:46.412Z,99877.77
2017-11-11T20:51:12.232Z,99876.81
2017-11-11T20:53:38.129Z,99882.17
2017-11-11T20:56:03.948Z,99872.19
2017-11-11T20:58:29.873Z,99876.05
2017-11-11T21:00:55.665Z,99874.24
2017-11-11T21:03:21.465Z,99875.28
2017-11-11T21:05:47.415Z,99882.16
2017-11-11T21:08:13.193Z,99884.26
2017-11-11T21:10:38.985Z,99885.55
2017-11-11T21:13:04.806Z,99885.45
2017-11-11T21:15:30.607Z,99889.69
2017-11-11T21:17:56.410Z,99893.13
2017-11-11T21:20:22.231Z,99889.64
2017-11-11T21:22:48.040Z,99883.67
2017-11-11T21:25:13.844Z,99889.36
2017-11-11T21:27:39.784Z,99884.72
2017-11-11T21:30:05.588Z,99886.87
2017-11-11T21:32:31.928Z,99893.17
2017-11-11T21:34:58.461Z,99891.59
2017-11-11T21:37:24.254Z,99892.41
2017-11-11T21:39:50.056Z,99889.73
2017-11-11T21:42:16.156Z,99888.84
2017-11-11T21:44:41.969Z,99889.06
2017-11-11T21:47:08.513Z,99882.10
2017-11-11T21:49:34.353Z,99887.63
2017-11-11T21:52:00.150Z,99886.28
2017-11-11T21:54:25.959Z,99891.73
2017-11-11T21:56:52.598Z,99897.50
2017-11-11T21:59:18.494Z,99900.12
2017-11-11T22:01:45.064Z,99896.90
2017-11-11T22:04:10.918Z,99896.75
2017-11-11T22:06:36.754Z,99896.98
2017-11-11T22:09:02.605Z,99903.56
2017-11-11T22:11:29.096Z,99899.03
2017-11-11T22:14:02.131Z,99890.21
2017-11-11T22:16:27.934Z,99887.91
2017-11-11T22:18:53.726Z,99894.41
2017-11-11T22:21:20.268Z,99894.97
2017-11-11T22:23:46.129Z,99898.55
2017-11-11T22:26:11.929Z,99890.01
2017-11-11T22:28:38.095Z,99887.34
2017-11-11T22:31:03.889Z,99888.20
2017-11-11T22:33:29.705Z,99888.63
2017-11-11T22:35:55.752Z,99884.05
2017-11-11T22:38:22.204Z,99887.63
2017-11-11T22:40:48.009Z,99881.97
2017-11-11T22:43:14.075Z,99878.14
2017-11-11T22:45:40.577Z,99883.34
2017-11-11T22:48:06.361Z,99886.77
2017-11-11T22:50:33.198Z,99887.63
2017-11-11T22:52:59.041Z,99883.69
2017-11-11T22:55:24.837Z,99883.53
2017-11-11T22:57:50.669Z,99893.02
2017-11-11T23:00:28.704Z,99893.16
2017-11-11T23:02:54.525Z,99890.59
2017-11-11T23:05:21.016Z,99895.66
2017-11-11T23:07:46.845Z,99891.17
2017-11-11T23:10:13.417Z,99884.39
2017-11-11T23:12:39.264Z,99883.82
2017-11-11T23:15:05.066Z,99889.68
2017-11-11T23:17:31.073Z,99878.33
2017-11-11T23:19:56.864Z,99881.76
2017-11-11T23:22:22.676Z,99886.72
2017-11-11T23:24:48.648Z,99882.20
2017-11-11T23:27:14.462Z,99885.83
2017-11-11T23:29:40.273Z,99883.16
2017-11-11T23:32:06.383Z,99885.45
2017-11-11T23:34:32.187Z,99882.43
2017-11-11T23:36:57.998Z,99878.47
2017-11-11T23:39:23.958Z,99879.19
2017-11-11T23:41:49.744Z,99878.14
2017-11-11T23:44:15.531Z,99875.08
2017-11-11T23:46:41.320Z,99874.89
2017-11-11T23:49:07.118Z,99874.22
2017-11-11T23:51:33.026Z,99868.26
2017-11-11T23:53:58.861Z,99869.25
2017-11-11T23:56:24.676Z,99860.47
2017-11-11T23:58:50.496Z,99863.25
